Time;durP1;ratioP1;P1;durP2;ratioP2;P2;SDS_P1;SDS_P2;PMS_P1;PMS_P2;Temp;Humidity;BMP_temperature;BMP_pressure;BME280_temperature;BME280_humidity;BME280_pressure;Samples;Min_cycle;Max_cycle;Signal;HPM_P1;HPM_P2
2021/03/25 00:00:35;;;;;;;31.77;14.20;;;13.00;2176.00;;;;;;4997006;28;20030;-66
2021/03/25 00:03:03;;;;;;;32.38;13.90;;;13.10;2176.00;;;;;;4996791;28;20046;-66
2021/03/25 00:05:32;;;;;;;47.33;19.52;;;13.20;2201.60;;;;;;4997406;28;20114;-66
2021/03/25 00:07:58;;;;;;;34.58;15.45;;;13.20;2201.60;;;;;;4997465;28;20499;-66
2021/03/25 00:10:31;;;;;;;27.85;12.57;;;13.30;2201.60;;;;;;4995827;28;20052;-66
2021/03/25 00:12:58;;;;;;;25.80;11.90;;;13.40;2201.60;;;;;;4994713;28;20019;-66
2021/03/25 00:15:24;;;;;;;21.38;11.15;;;13.40;2201.60;;;;;;5001778;28;20026;-66
2021/03/25 00:17:50;;;;;;;26.40;12.43;;;13.50;2201.60;;;;;;4995917;28;20026;-66
2021/03/25 00:20:17;;;;;;;44.40;18.00;;;13.50;2201.60;;;;;;4996855;28;20038;-66
2021/03/25 00:22:43;;;;;;;42.30;18.00;;;13.60;2201.60;;;;;;5005318;28;20422;-66
2021/03/25 00:25:14;;;;;;;28.88;14.23;;;13.60;2201.60;;;;;;4995417;28;20045;-66
2021/03/25 00:27:40;;;;;;;29.45;12.82;;;13.70;2201.60;;;;;;4994714;28;20479;-66
2021/03/25 00:30:09;;;;;;;23.35;11.43;;;13.70;2201.60;;;;;;4995526;28;20049;-66
2021/03/25 00:32:35;;;;;;;22.52;11.02;;;38.40;2201.60;;;;;;4994084;28;20527;-66
2021/03/25 00:35:01;;;;;;;22.33;11.13;;;38.40;2201.60;;;;;;5008748;28;20116;-66
2021/03/25 00:37:27;;;;;;;20.48;10.88;;;38.50;2201.60;;;;;;5008049;28;20054;-66
2021/03/25 00:39:53;;;;;;;22.48;10.65;;;38.60;2201.60;;;;;;4999716;28;20045;-66
2021/03/25 00:42:18;;;;;;;30.60;14.10;;;38.70;2201.60;;;;;;5004250;28;20030;-66
2021/03/25 00:44:44;;;;;;;30.23;14.98;;;38.70;2201.60;;;;;;5001507;28;20025;-66
2021/03/25 00:47:10;;;;;;;26.65;13.00;;;38.70;2201.60;;;;;;5000225;28;20041;-66
2021/03/25 00:49:36;;;;;;;27.40;13.38;;;38.70;2201.60;;;;;;4992544;28;20506;-66
2021/03/25 00:52:03;;;;;;;45.13;19.98;;;38.70;2201.60;;;;;;5003538;28;20029;-66
2021/03/25 00:54:29;;;;;;;40.80;20.23;;;38.60;2201.60;;;;;;4999772;28;20100;-66
2021/03/25 00:56:55;;;;;;;47.97;22.55;;;38.60;2201.60;;;;;;5002583;28;20026;-66
2021/03/25 00:59:20;;;;;;;39.30;19.90;;;38.60;2201.60;;;;;;4999280;28;20018;-66
2021/03/25 01:01:46;;;;;;;40.17;21.23;;;38.60;2201.60;;;;;;4995790;28;20505;-66
2021/03/25 01:04:12;;;;;;;43.45;20.85;;;38.60;2201.60;;;;;;4995146;28;20415;-66
2021/03/25 01:06:38;;;;;;;42.13;19.05;;;38.70;2201.60;;;;;;4998252;28;20238;-66
2021/03/25 01:09:14;;;;;;;32.42;15.90;;;38.70;2201.60;;;;;;4993907;28;20081;-66
2021/03/25 01:11:40;;;;;;;21.67;10.90;;;38.70;2201.60;;;;;;4994235;28;20026;-66
2021/03/25 01:14:09;;;;;;;22.77;10.75;;;38.80;2201.60;;;;;;4993324;28;20033;-66
2021/03/25 01:16:39;;;;;;;18.77;9.40;;;38.80;2201.60;;;;;;4992957;28;20069;-66
2021/03/25 01:19:17;;;;;;;13.90;7.43;;;38.90;2201.60;;;;;;5005934;28;20033;-66
2021/03/25 01:21:44;;;;;;;14.07;7.20;;;39.00;2201.60;;;;;;4997922;28;20499;-66
2021/03/25 01:24:10;;;;;;;13.57;7.20;;;39.10;2201.60;;;;;;4995641;28;20499;-66
2021/03/25 01:26:36;;;;;;;13.80;7.20;;;39.10;2201.60;;;;;;4993681;28;20056;-68
2021/03/25 01:29:03;;;;;;;16.45;7.57;;;39.20;2201.60;;;;;;4993772;28;20073;-66
2021/03/25 01:31:30;;;;;;;15.07;7.68;;;39.30;2201.60;;;;;;4992655;28;20300;-69
2021/03/25 01:33:56;;;;;;;13.80;7.32;;;64.00;2201.60;;;;;;4995255;28;20089;-66
2021/03/25 01:36:22;;;;;;;12.45;7.13;;;64.00;2201.60;;;;;;5002856;28;20046;-66
2021/03/25 01:38:48;;;;;;;15.65;7.97;;;64.10;2201.60;;;;;;4994648;28;20063;-66
2021/03/25 01:41:14;;;;;;;13.88;7.70;;;64.10;2201.60;;;;;;4994808;28;20029;-67
2021/03/25 01:43:42;;;;;;;14.48;7.75;;;64.10;2201.60;;;;;;4998252;28;20080;-66
2021/03/25 01:46:33;;;;;;;18.25;8.98;;;64.10;2201.60;;;;;;5011159;28;20033;-66
2021/03/25 01:49:00;;;;;;;;;;;64.10;2201.60;;;;;;5011763;28;20105;-69
2021/03/25 01:51:50;;;;;;;23.40;11.15;;;64.10;2201.60;;;;;;5011531;28;19984;-68
2021/03/25 01:54:21;;;;;;;29.77;14.02;;;64.10;2201.60;;;;;;5011838;28;20017;-66
2021/03/25 01:57:24;;;;;;;38.38;17.92;;;64.10;2201.60;;;;;;5011489;28;20398;-67
2021/03/25 01:59:58;;;;;;;41.28;19.88;;;64.10;2201.60;;;;;;5006188;28;20467;-66
2021/03/25 02:03:00;;;;;;;53.80;23.13;;;64.10;2201.60;;;;;;5011864;28;20029;-66
2021/03/25 02:05:41;;;;;;;54.60;22.02;;;64.10;2201.60;;;;;;5012579;28;20505;-67
2021/03/25 02:08:21;;;;;;;41.13;18.85;;;64.00;2201.60;;;;;;5010094;28;20096;-65
2021/03/25 02:11:25;;;;;;;39.85;19.95;;;64.00;2201.60;;;;;;5011242;28;20083;-65
2021/03/25 02:13:51;;;;;;;42.13;20.77;;;39.30;2201.60;;;;;;4970143;28;20019;-69
2021/03/25 02:16:29;;;;;;;40.97;20.98;;;39.30;2201.60;;;;;;4993861;28;20038;-66
2021/03/25 02:19:27;;;;;;;40.95;22.80;;;39.30;2201.60;;;;;;5010678;28;20025;-66
2021/03/25 02:22:23;;;;;;;44.97;23.00;;;39.20;2201.60;;;;;;4989732;28;20038;-66
2021/03/25 02:25:10;;;;;;;52.53;25.25;;;39.20;2201.60;;;;;;5017654;28;20092;-66
2021/03/25 02:27:54;;;;;;;38.20;21.02;;;39.20;2201.60;;;;;;5006911;28;20479;-66
2021/03/25 02:30:46;;;;;;;35.25;17.65;;;39.20;2201.60;;;;;;5017659;28;20116;-65
2021/03/25 02:33:19;;;;;;;34.33;17.48;;;39.20;2201.60;;;;;;5017617;28;20025;-66
2021/03/25 02:36:00;;;;;;;33.80;16.75;;;39.20;2201.60;;;;;;5017662;28;20048;-67
2021/03/25 02:38:41;;;;;;;30.48;15.80;;;39.30;2201.60;;;;;;5017802;28;20021;-68
2021/03/25 02:41:15;;;;;;;31.13;15.65;;;39.30;2201.60;;;;;;5017583;28;20033;-66
2021/03/25 02:43:57;;;;;;;29.48;15.45;;;39.30;2201.60;;;;;;5017722;28;20018;-66
2021/03/25 02:46:53;;;;;;;27.30;14.40;;;39.30;2201.60;;;;;;5017579;28;20022;-67
2021/03/25 02:49:24;;;;;;;25.70;13.48;;;39.30;2201.60;;;;;;5017472;28;20037;-66
2021/03/25 02:52:13;;;;;;;22.85;12.40;;;39.30;2201.60;;;;;;5017779;28;20367;-66
2021/03/25 02:54:39;;;;;;;21.75;12.52;;;39.20;2201.60;;;;;;5017584;28;20026;-66
2021/03/25 02:57:30;;;;;;;22.27;13.40;;;39.20;2201.60;;;;;;5017476;28;20391;-66
2021/03/25 03:00:00;;;;;;;25.33;13.35;;;39.20;2201.60;;;;;;5017297;28;20037;-66
2021/03/25 03:02:30;;;;;;;23.73;13.73;;;39.30;2201.60;;;;;;5017504;28;20096;-67
2021/03/25 03:05:01;;;;;;;23.42;12.75;;;39.30;2201.60;;;;;;5017825;28;20040;-66
2021/03/25 03:07:38;;;;;;;23.77;13.25;;;64.00;2201.60;;;;;;5016121;28;20394;-65
2021/03/25 03:10:08;;;;;;;27.50;12.85;;;64.00;2201.60;;;;;;5017236;28;20084;-65
2021/03/25 03:12:41;;;;;;;43.25;19.08;;;64.10;2201.60;;;;;;5017456;28;20092;-66
2021/03/25 03:15:27;;;;;;;35.58;17.52;;;64.10;2201.60;;;;;;5017373;28;20033;-65
2021/03/25 03:18:04;;;;;;;37.78;17.27;;;64.10;2201.60;;;;;;5016275;28;20034;-65
2021/03/25 03:20:52;;;;;;;32.60;16.92;;;64.10;2201.60;;;;;;5016962;28;20080;-65
2021/03/25 03:23:18;;;;;;;26.83;15.32;;;64.10;2201.60;;;;;;5017396;28;20037;-66
2021/03/25 03:25:43;;;;;;;30.63;16.20;;;64.10;2201.60;;;;;;5017071;28;20109;-65
2021/03/25 03:28:42;;;;;;;33.03;18.60;;;64.10;2201.60;;;;;;5017272;28;20097;-67
2021/03/25 03:31:15;;;;;;;33.85;19.48;;;64.10;2201.60;;;;;;5016041;28;20084;-66
2021/03/25 03:33:49;;;;;;;34.88;19.40;;;64.10;2201.60;;;;;;5015576;28;20025;-66
2021/03/25 03:36:22;;;;;;;40.38;22.17;;;64.10;2201.60;;;;;;5014035;28;20057;-66
2021/03/25 03:39:05;;;;;;;36.72;21.52;;;64.10;2201.60;;;;;;5013984;28;20509;-66
2021/03/25 03:42:06;;;;;;;40.63;20.73;;;64.00;2201.60;;;;;;5014139;28;20034;-67
2021/03/25 03:44:36;;;;;;;40.42;21.05;;;39.30;2201.60;;;;;;5013948;28;20025;-68
2021/03/25 03:47:05;;;;;;;38.00;19.20;;;39.20;2201.60;;;;;;5014065;28;20030;-66
2021/03/25 03:49:45;;;;;;;45.38;21.92;;;39.20;2201.60;;;;;;5013469;28;20475;-66
2021/03/25 03:52:26;;;;;;;32.25;17.88;;;39.20;2201.60;;;;;;5012490;28;20030;-67
2021/03/25 03:54:54;;;;;;;35.08;19.73;;;39.20;2201.60;;;;;;5013789;28;20032;-66
2021/03/25 03:57:25;;;;;;;37.85;20.77;;;39.30;2201.60;;;;;;5014125;28;20037;-66
2021/03/25 04:00:09;;;;;;;47.05;24.90;;;39.20;2201.60;;;;;;5013615;28;20022;-68
2021/03/25 04:02:46;;;;;;;37.50;20.92;;;39.20;2201.60;;;;;;5013773;28;20498;-66
2021/03/25 04:05:28;;;;;;;38.35;21.98;;;39.20;2201.60;;;;;;5013583;28;20509;-67
2021/03/25 04:08:27;;;;;;;36.22;21.77;;;39.20;2201.60;;;;;;5013531;28;20479;-67
2021/03/25 04:11:09;;;;;;;40.22;21.30;;;39.10;2201.60;;;;;;5011509;28;20402;-66
2021/03/25 04:13:49;;;;;;;35.60;19.75;;;39.10;2201.60;;;;;;5013283;28;20022;-66
2021/03/25 04:16:16;;;;;;;40.65;21.30;;;39.00;2201.60;;;;;;5013567;28;20029;-67
2021/03/25 04:18:55;;;;;;;101.28;41.55;;;39.00;2201.60;;;;;;5012923;28;20026;-68
2021/03/25 04:21:43;;;;;;;68.28;28.98;;;38.90;2201.60;;;;;;5013539;28;20026;-66
2021/03/25 04:24:17;;;;;;;54.58;25.83;;;38.90;2201.60;;;;;;5013674;28;20037;-64
2021/03/25 04:27:11;;;;;;;46.95;24.17;;;38.80;2201.60;;;;;;5013065;28;20172;-66
2021/03/25 04:29:56;;;;;;;37.45;20.77;;;38.80;2201.60;;;;;;5013105;28;20018;-67
2021/03/25 04:32:22;;;;;;;29.55;16.77;;;38.80;2201.60;;;;;;5011733;28;20057;-66
2021/03/25 04:34:49;;;;;;;28.00;16.65;;;38.80;2201.60;;;;;;5013283;28;20058;-66
2021/03/25 04:37:16;;;;;;;31.15;17.20;;;38.80;2201.60;;;;;;5013048;28;20057;-66
2021/03/25 04:39:43;;;;;;;30.67;17.42;;;38.80;2201.60;;;;;;5012626;28;20022;-67
2021/03/25 04:42:09;;;;;;;40.05;19.23;;;38.80;2201.60;;;;;;5012982;28;20030;-68
2021/03/25 04:44:38;;;;;;;42.42;20.80;;;38.70;2201.60;;;;;;5012707;28;20032;-67
2021/03/25 04:47:18;;;;;;;46.53;23.50;;;38.70;2201.60;;;;;;5012731;28;20493;-67
2021/03/25 04:49:52;;;;;;;45.83;22.87;;;38.60;2201.60;;;;;;5011639;28;20020;-68
2021/03/25 04:52:30;;;;;;;56.42;27.58;;;38.50;2201.60;;;;;;5012622;28;20034;-67
2021/03/25 04:55:13;;;;;;;52.35;25.27;;;38.40;2201.60;;;;;;5012627;28;20133;-67
2021/03/25 04:57:44;;;;;;;53.72;27.27;;;38.40;2201.60;;;;;;5012597;28;20030;-67
2021/03/25 05:00:17;;;;;;;58.47;27.42;;;13.50;2201.60;;;;;;5012639;28;20490;-66
2021/03/25 05:02:43;;;;;;;65.95;31.83;;;13.30;2201.60;;;;;;5012516;28;20037;-67
2021/03/25 05:05:15;;;;;;;63.25;30.42;;;13.20;2201.60;;;;;;5012787;28;20042;-67
2021/03/25 05:07:41;;;;;;;59.38;28.13;;;13.00;2201.60;;;;;;5012623;28;20030;-68
2021/03/25 05:10:21;;;;;;;50.58;26.58;;;0.10;2201.60;;;;;;5012392;28;20363;-67
2021/03/25 05:12:51;;;;;;;39.28;22.55;;;0.50;2201.60;;;;;;5012305;28;20030;-67
2021/03/25 05:15:19;;;;;;;37.70;19.55;;;0.70;2201.60;;;;;;5012460;28;20386;-67
2021/03/25 05:18:26;;;;;;;36.80;20.33;;;25.60;2201.60;;;;;;5012406;28;20033;-67
2021/03/25 05:21:14;;;;;;;32.22;17.63;;;26.20;2201.60;;;;;;5010997;28;20157;-67
2021/03/25 05:24:08;;;;;;;37.42;18.40;;;51.20;2099.20;;;;;;5012075;28;20069;-67
2021/03/25 05:26:47;;;;;;;39.00;21.15;;;51.40;2099.20;;;;;;5012316;28;20026;-67
2021/03/25 05:29:14;;;;;;;37.65;20.38;;;51.50;2073.60;;;;;;5011912;28;20352;-67
2021/03/25 05:31:44;;;;;;;50.08;26.52;;;51.50;2048.00;;;;;;5012113;28;20383;-67
2021/03/25 05:34:11;;;;;;;39.75;21.38;;;51.60;2048.00;;;;;;5011906;28;20071;-66
2021/03/25 05:36:37;;;;;;;39.70;21.35;;;51.80;2099.20;;;;;;5011996;28;20050;-68
2021/03/25 05:39:04;;;;;;;33.90;19.90;;;51.80;2150.40;;;;;;5011813;28;20030;-68
2021/03/25 05:41:46;;;;;;;34.72;18.48;;;51.90;2124.80;;;;;;5012240;28;20117;-67
2021/03/25 05:44:50;;;;;;;33.20;19.17;;;52.00;2124.80;;;;;;5011718;28;20108;-67
2021/03/25 05:47:28;;;;;;;30.00;17.60;;;77.20;2048.00;;;;;;4990210;28;20484;-68
2021/03/25 05:50:05;;;;;;;32.38;19.25;;;76.90;2022.40;;;;;;4989556;28;20034;-67
2021/03/25 05:52:55;;;;;;;27.80;16.85;;;77.60;1971.20;;;;;;5003775;28;20061;-67
2021/03/25 05:55:23;;;;;;;29.55;16.13;;;102.50;1894.40;;;;;;5011764;28;20076;-67
2021/03/25 05:58:05;;;;;;;28.70;16.08;;;102.50;1868.80;;;;;;5010889;28;20597;-68
2021/03/25 06:00:51;;;;;;;37.10;18.13;;;102.70;1843.20;;;;;;5011548;28;20034;-69
2021/03/25 06:03:19;;;;;;;45.72;24.85;;;102.60;1868.80;;;;;;5011435;28;20084;-68
2021/03/25 06:05:49;;;;;;;59.35;28.70;;;77.70;1868.80;;;;;;5011821;28;20446;-68
2021/03/25 06:08:37;;;;;;;61.28;29.88;;;77.10;1920.00;;;;;;5011434;28;20024;-67
2021/03/25 06:11:31;;;;;;;38.35;19.85;;;52.00;2022.40;;;;;;5011599;28;20036;-69
2021/03/25 06:14:07;;;;;;;19.52;11.65;;;76.80;1996.80;;;;;;5011611;28;20434;-67
2021/03/25 06:17:07;;;;;;;28.02;16.10;;;51.80;2022.40;;;;;;5011322;28;20025;-68
2021/03/25 06:19:51;;;;;;;25.77;13.55;;;51.90;2022.40;;;;;;5011120;28;20423;-67
2021/03/25 06:22:38;;;;;;;24.90;14.70;;;51.90;1996.80;;;;;;5010354;28;20505;-67
2021/03/25 06:25:39;;;;;;;27.60;15.98;;;52.10;1996.80;;;;;;5011275;28;20113;-71
2021/03/25 06:28:22;;;;;;;31.23;16.98;;;52.10;1971.20;;;;;;5011314;28;20541;-67
2021/03/25 06:31:05;;;;;;;34.60;19.98;;;76.90;1945.60;;;;;;5011527;28;20185;-67
2021/03/25 06:34:15;;;;;;;28.55;16.33;;;77.20;1920.00;;;;;;5011136;28;20119;-68
2021/03/25 06:36:46;;;;;;;35.60;18.83;;;77.50;1894.40;;;;;;5005798;28;20050;-67
2021/03/25 06:39:38;;;;;;;31.35;18.98;;;77.40;1894.40;;;;;;5010760;28;20033;-67
2021/03/25 06:42:14;;;;;;;28.35;15.48;;;77.50;1894.40;;;;;;5011331;28;20025;-68
2021/03/25 06:44:55;;;;;;;28.05;15.60;;;102.60;1843.20;;;;;;5011181;28;20022;-68
2021/03/25 06:47:51;;;;;;;36.00;19.52;;;103.00;1740.80;;;;;;5011388;28;20075;-68
2021/03/25 06:50:54;;;;;;;35.83;20.67;;;128.20;1740.80;;;;;;5010887;28;20049;-67
2021/03/25 06:53:27;;;;;;;43.70;26.33;;;128.90;1689.60;;;;;;4989343;28;20606;-68
2021/03/25 06:56:03;;;;;;;44.35;24.73;;;153.80;1638.40;;;;;;5007820;28;20125;-67
2021/03/25 06:58:45;;;;;;;40.08;24.60;;;179.30;1587.20;;;;;;5010977;28;20113;-68
2021/03/25 07:01:32;;;;;;;41.88;26.10;;;230.70;1408.00;;;;;;5010934;28;20030;-68
2021/03/25 07:04:07;;;;;;;27.83;19.23;;;256.80;1280.00;;;;;;5011234;28;20041;-68
2021/03/25 07:06:34;;;;;;;35.58;20.95;;;307.40;1177.60;;;;;;5010764;28;20204;-68
2021/03/25 07:09:01;;;;;;;32.47;20.95;;;307.70;1177.60;;;;;;5012959;28;20030;-68
2021/03/25 07:11:29;;;;;;;30.00;20.60;;;282.50;1177.60;;;;;;5014500;28;20033;-65
2021/03/25 07:14:07;;;;;;;30.45;19.77;;;333.60;1100.80;;;;;;5014576;28;20022;-67
2021/03/25 07:16:39;;;;;;;32.10;20.77;;;384.30;998.40;;;;;;5013228;28;20034;-66
2021/03/25 07:19:12;;;;;;;34.50;20.45;;;436.10;947.20;;;;;;5002271;28;20026;-67
2021/03/25 07:21:43;;;;;;;29.90;20.85;;;487.00;870.40;;;;;;5014672;28;20026;-67
2021/03/25 07:24:27;;;;;;;;;;;538.20;819.20;;;;;;5014869;28;20395;-67
2021/03/25 07:27:05;;;;;;;26.92;19.73;;;564.00;793.60;;;;;;5012861;28;20000;-67
2021/03/25 07:29:36;;;;;;;27.60;19.50;;;564.10;768.00;;;;;;5013801;28;20030;-67
2021/03/25 07:32:04;;;;;;;33.58;27.15;;;589.60;742.40;;;;;;5014440;28;20076;-68
2021/03/25 07:34:45;;;;;;;30.02;21.95;;;589.60;742.40;;;;;;5013878;28;20093;-69
2021/03/25 07:37:14;;;;;;;;;;;615.10;742.40;;;;;;5014502;28;20053;-72
2021/03/25 07:39:50;;;;;;;26.98;21.77;;;666.30;691.20;;;;;;5013595;28;19956;-68
2021/03/25 07:42:30;;;;;;;25.02;19.98;;;691.90;665.60;;;;;;5014223;28;20022;-68
2021/03/25 07:45:17;;;;;;;31.50;22.80;;;716.80;665.60;;;;;;5014041;28;20091;-69
2021/03/25 07:47:43;;;;;;;24.10;19.88;;;692.10;640.00;;;;;;5014068;28;20034;-69
2021/03/25 07:50:31;;;;;;;24.80;19.58;;;717.70;640.00;;;;;;5013663;28;20486;-72
2021/03/25 07:52:58;;;;;;;23.88;19.45;;;742.70;665.60;;;;;;5013969;28;20108;-67
2021/03/25 07:55:32;;;;;;;24.05;18.48;;;717.70;640.00;;;;;;5013793;28;20026;-68
2021/03/25 07:57:59;;;;;;;23.33;18.67;;;742.60;640.00;;;;;;5013805;28;20355;-68
2021/03/25 08:00:34;;;;;;;24.13;18.55;;;717.20;640.00;;;;;;5012691;28;20037;-68
2021/03/25 08:03:14;;;;;;;23.77;20.08;;;742.50;665.60;;;;;;5013733;28;20018;-68
2021/03/25 08:05:40;;;;;;;29.55;24.17;;;768.40;614.40;;;;;;5013841;28;20386;-68
2021/03/25 08:08:16;;;;;;;22.50;18.40;;;768.90;614.40;;;;;;5013371;28;20057;-68
2021/03/25 08:10:44;;;;;;;26.08;21.02;;;819.40;614.40;;;;;;5013671;28;20076;-68
2021/03/25 08:13:30;;;;;;;26.70;21.58;;;844.90;614.40;;;;;;5013358;28;20029;-67
2021/03/25 08:16:08;;;;;;;56.42;44.05;;;845.60;588.80;;;;;;5013847;28;20022;-66
2021/03/25 08:18:56;;;;;;;31.42;25.05;;;870.70;563.20;;;;;;5013052;28;20026;-67
2021/03/25 08:21:40;;;;;;;25.70;18.55;;;871.10;563.20;;;;;;5012718;28;20030;-66
2021/03/25 08:24:33;;;;;;;22.88;19.67;;;896.90;537.60;;;;;;5013659;28;20018;-67
2021/03/25 08:27:01;;;;;;;23.42;19.40;;;922.50;512.00;;;;;;5013053;28;20026;-66
2021/03/25 08:29:55;;;;;;;27.52;24.63;;;973.10;512.00;;;;;;5012820;28;20049;-71
2021/03/25 08:32:43;;;;;;;23.27;19.98;;;973.60;512.00;;;;;;5013178;28;20028;-69
2021/03/25 08:35:42;;;;;;;23.23;17.70;;;998.40;512.00;;;;;;5013119;28;20105;-67
2021/03/25 08:38:29;;;;;;;21.20;17.35;;;973.50;486.40;;;;;;5011753;28;20061;-67
2021/03/25 08:41:02;;;;;;;20.35;16.90;;;973.50;486.40;;;;;;5012834;28;20036;-67
2021/03/25 08:43:43;;;;;;;20.48;15.93;;;998.80;512.00;;;;;;5013344;28;20018;-67
2021/03/25 08:46:17;;;;;;;19.33;15.55;;;1024.20;486.40;;;;;;5012741;28;20034;-66
2021/03/25 08:49:06;;;;;;;20.27;16.77;;;1024.60;460.80;;;;;;5012737;28;20026;-67
2021/03/25 08:51:41;;;;;;;18.85;15.93;;;1050.00;486.40;;;;;;5012630;28;20022;-67
2021/03/25 08:54:48;;;;;;;14.60;11.55;;;1075.30;460.80;;;;;;5013056;28;20026;-67
2021/03/25 08:57:19;;;;;;;15.73;13.88;;;1075.60;435.20;;;;;;4990701;28;20480;-67
2021/03/25 09:00:00;;;;;;;13.65;11.60;;;1075.80;435.20;;;;;;4990333;28;20038;-67
2021/03/25 09:02:46;;;;;;;13.43;10.73;;;1075.60;435.20;;;;;;5001915;28;20034;-67
2021/03/25 09:05:46;;;;;;;12.57;10.70;;;1075.60;435.20;;;;;;5012667;28;20101;-66
2021/03/25 09:08:16;;;;;;;13.82;11.60;;;1100.80;460.80;;;;;;5012164;28;20040;-69
2021/03/25 09:10:46;;;;;;;11.85;9.60;;;1075.90;435.20;;;;;;5012118;28;20566;-67
2021/03/25 09:13:25;;;;;;;11.35;9.18;;;1100.90;460.80;;;;;;5011988;28;20029;-66
2021/03/25 09:15:57;;;;;;;11.77;9.85;;;1101.40;435.20;;;;;;5004651;28;20015;-67
2021/03/25 09:18:25;;;;;;;16.20;13.13;;;1075.70;435.20;;;;;;4995670;28;20031;-68
2021/03/25 09:20:55;;;;;;;13.77;10.98;;;1100.90;435.20;;;;;;5000501;28;20342;-67
2021/03/25 09:23:32;;;;;;;11.02;8.55;;;1075.30;435.20;;;;;;5012149;28;20026;-67
2021/03/25 09:26:00;;;;;;;11.00;9.07;;;1075.30;435.20;;;;;;5001021;28;20525;-65
2021/03/25 09:29:02;;;;;;;12.43;9.40;;;1050.40;435.20;;;;;;5011196;28;20471;-67
2021/03/25 09:31:39;;;;;;;11.00;8.93;;;1050.50;460.80;;;;;;4999265;28;20029;-68
2021/03/25 09:34:11;;;;;;;13.38;10.30;;;1075.70;435.20;;;;;;4999036;28;20020;-67
2021/03/25 09:36:40;;;;;;;22.73;15.43;;;1101.30;435.20;;;;;;4994244;28;20069;-67
2021/03/25 09:39:17;;;;;;;15.10;11.07;;;1100.80;460.80;;;;;;4994240;28;20061;-69
2021/03/25 09:41:43;;;;;;;13.32;10.73;;;1101.10;435.20;;;;;;4993581;28;20023;-67
2021/03/25 09:44:08;;;;;;;14.27;11.57;;;1101.00;435.20;;;;;;4993414;28;20451;-67
2021/03/25 09:46:38;;;;;;;12.77;9.45;;;1101.10;435.20;;;;;;4999192;28;20030;-72
2021/03/25 09:49:19;;;;;;;13.50;9.82;;;1126.60;435.20;;;;;;5007049;28;20057;-67
2021/03/25 09:51:47;;;;;;;14.57;10.43;;;1101.40;435.20;;;;;;5001845;28;20029;-70
2021/03/25 09:54:24;;;;;;;13.10;10.68;;;1101.60;435.20;;;;;;5007782;28;20382;-67
2021/03/25 09:57:27;;;;;;;15.43;11.88;;;1101.40;435.20;;;;;;5000210;28;20109;-67
2021/03/25 10:00:09;;;;;;;11.77;8.77;;;1152.10;435.20;;;;;;4994013;28;20382;-68
2021/03/25 10:02:38;;;;;;;11.50;8.10;;;1126.50;435.20;;;;;;4997314;28;20026;-68
2021/03/25 10:05:25;;;;;;;13.32;9.10;;;1126.90;435.20;;;;;;5001413;28;20022;-67
2021/03/25 10:07:56;;;;;;;9.02;6.72;;;1152.10;409.60;;;;;;4992092;28;20486;-67
2021/03/25 10:10:39;;;;;;;8.90;5.93;;;1101.70;409.60;;;;;;4996337;28;20031;-67
2021/03/25 10:13:06;;;;;;;8.25;5.13;;;1127.10;409.60;;;;;;4996627;28;20399;-68
2021/03/25 10:15:32;;;;;;;8.15;6.32;;;1126.90;409.60;;;;;;4995664;28;20496;-68
2021/03/25 10:18:05;;;;;;;8.75;6.20;;;1126.40;409.60;;;;;;4993803;28;20507;-69
2021/03/25 10:20:52;;;;;;;11.35;7.43;;;1126.70;409.60;;;;;;4993218;28;20109;-68
2021/03/25 10:23:36;;;;;;;16.67;11.48;;;1101.10;409.60;;;;;;4995980;28;20069;-68
2021/03/25 10:26:05;;;;;;;13.18;9.40;;;1050.00;435.20;;;;;;4999912;28;20025;-69
2021/03/25 10:28:36;;;;;;;11.77;7.93;;;1024.30;435.20;;;;;;5008457;28;20116;-67
2021/03/25 10:31:22;;;;;;;19.05;15.63;;;947.20;460.80;;;;;;5009887;28;20033;-68
2021/03/25 10:33:52;;;;;;;8.05;6.00;;;1024.30;409.60;;;;;;5008407;28;20486;-67
2021/03/25 10:36:43;;;;;;;9.32;7.80;;;1075.20;409.60;;;;;;4998113;28;20502;-67
2021/03/25 10:39:23;;;;;;;9.23;5.88;;;1100.90;435.20;;;;;;4991547;28;20041;-68
2021/03/25 10:41:49;;;;;;;8.60;5.67;;;1101.00;409.60;;;;;;5000249;28;20038;-66
2021/03/25 10:44:28;;;;;;;10.80;6.72;;;1127.00;409.60;;;;;;5005748;28;20364;-66
2021/03/25 10:46:58;;;;;;;11.00;8.50;;;948.00;409.60;;;;;;5006870;28;20502;-66
2021/03/25 10:49:42;;;;;;;10.23;6.20;;;819.30;486.40;;;;;;5000042;28;20565;-68
2021/03/25 10:52:38;;;;;;;9.90;6.82;;;768.00;512.00;;;;;;4996899;28;20022;-67
2021/03/25 10:55:20;;;;;;;8.57;6.95;;;870.70;460.80;;;;;;5010210;28;20040;-67
2021/03/25 10:57:49;;;;;;;9.15;6.80;;;922.10;435.20;;;;;;4999603;28;20026;-66
2021/03/25 11:00:19;;;;;;;11.23;8.30;;;947.60;435.20;;;;;;5003076;28;20029;-68
2021/03/25 11:02:45;;;;;;;12.95;8.73;;;1024.20;409.60;;;;;;5003177;28;20537;-69
2021/03/25 11:05:23;;;;;;;14.60;10.30;;;1050.40;409.60;;;;;;4997393;28;20512;-67
2021/03/25 11:07:53;;;;;;;13.50;8.60;;;973.10;435.20;;;;;;4996652;28;20447;-66
2021/03/25 11:10:18;;;;;;;12.15;7.60;;;870.50;486.40;;;;;;5001370;28;20103;-67
2021/03/25 11:12:44;;;;;;;10.13;6.72;;;742.80;537.60;;;;;;5003689;28;20054;-68
2021/03/25 11:15:20;;;;;;;12.35;8.60;;;640.40;563.20;;;;;;4999157;28;20034;-71
2021/03/25 11:17:47;;;;;;;11.93;7.22;;;588.90;640.00;;;;;;5014316;28;20026;-67
2021/03/25 11:20:20;;;;;;;14.25;9.02;;;538.40;691.20;;;;;;5001121;28;20033;-67
2021/03/25 11:22:46;;;;;;;9.88;6.57;;;512.90;665.60;;;;;;5014389;28;20018;-67
2021/03/25 11:25:19;;;;;;;8.40;5.53;;;487.10;691.20;;;;;;5014198;28;20483;-67
2021/03/25 11:27:45;;;;;;;9.95;6.05;;;461.70;716.80;;;;;;5014432;28;20049;-67
2021/03/25 11:30:35;;;;;;;15.18;11.45;;;461.60;716.80;;;;;;5013833;28;20018;-68
2021/03/25 11:33:02;;;;;;;13.27;7.40;;;461.50;716.80;;;;;;5014374;28;20471;-67
2021/03/25 11:35:27;;;;;;;10.93;6.38;;;460.90;768.00;;;;;;5013983;28;20038;-67
2021/03/25 11:37:55;;;;;;;9.80;6.90;;;461.10;742.40;;;;;;4997492;28;20034;-66
2021/03/25 11:40:42;;;;;;;13.88;8.40;;;461.00;768.00;;;;;;4994648;28;20030;-66
2021/03/25 11:43:11;;;;;;;11.15;6.68;;;435.90;768.00;;;;;;4996979;28;20379;-66
2021/03/25 11:45:41;;;;;;;11.18;7.22;;;435.80;793.60;;;;;;5001922;28;20138;-70
2021/03/25 11:48:24;;;;;;;12.30;6.18;;;435.80;742.40;;;;;;4998025;28;20030;-68
2021/03/25 11:50:50;;;;;;;9.05;5.43;;;436.00;768.00;;;;;;4995691;28;20391;-66
2021/03/25 11:53:37;;;;;;;12.00;7.38;;;435.80;716.80;;;;;;4996112;28;20034;-66
2021/03/25 11:56:05;;;;;;;9.77;5.80;;;436.10;768.00;;;;;;4998398;28;20395;-69
2021/03/25 11:58:31;;;;;;;31.40;24.13;;;435.70;716.80;;;;;;5013135;28;20094;-67
2021/03/25 12:01:03;;;;;;;10.65;7.68;;;435.40;768.00;;;;;;5013902;28;20022;-67
2021/03/25 12:03:50;;;;;;;18.55;12.68;;;435.50;793.60;;;;;;5013915;28;20033;-66
2021/03/25 12:06:18;;;;;;;20.58;15.65;;;435.30;768.00;;;;;;5006539;28;20117;-68
2021/03/25 12:08:45;;;;;;;35.95;30.73;;;410.20;768.00;;;;;;5013025;28;20364;-66
2021/03/25 12:11:12;;;;;;;23.05;18.65;;;410.00;768.00;;;;;;5013054;28;20478;-69
2021/03/25 12:13:38;;;;;;;6.72;4.10;;;410.10;793.60;;;;;;5013273;28;20038;-69
2021/03/25 12:16:07;;;;;;;7.45;4.40;;;410.10;742.40;;;;;;5013475;28;20391;-68
2021/03/25 12:18:39;;;;;;;15.07;10.88;;;409.70;768.00;;;;;;5013034;28;20018;-69
2021/03/25 12:21:08;;;;;;;8.27;5.13;;;409.60;768.00;;;;;;5013384;28;20014;-68
2021/03/25 12:23:40;;;;;;;7.70;5.05;;;384.90;768.00;;;;;;5012681;28;20025;-68
2021/03/25 12:26:10;;;;;;;8.50;5.45;;;409.60;768.00;;;;;;5009211;28;20025;-68
2021/03/25 12:28:36;;;;;;;8.25;4.78;;;409.80;793.60;;;;;;5012819;28;20026;-69
2021/03/25 12:31:03;;;;;;;11.65;6.30;;;409.60;793.60;;;;;;5013403;28;20025;-68
2021/03/25 12:33:37;;;;;;;11.13;6.10;;;384.60;768.00;;;;;;5013088;28;20026;-68
2021/03/25 12:36:05;;;;;;;8.30;5.10;;;384.60;793.60;;;;;;5012780;28;20399;-69
2021/03/25 12:38:31;;;;;;;8.60;5.50;;;384.50;819.20;;;;;;5012953;28;20387;-69
2021/03/25 12:40:57;;;;;;;11.48;6.55;;;384.70;793.60;;;;;;5012797;28;20018;-70
2021/03/25 12:43:26;;;;;;;8.50;5.28;;;384.30;793.60;;;;;;5012414;28;20023;-68
2021/03/25 12:45:56;;;;;;;12.05;8.90;;;384.30;793.60;;;;;;5012466;28;20164;-69
2021/03/25 12:48:23;;;;;;;7.63;4.32;;;384.40;793.60;;;;;;5011338;28;20030;-69
2021/03/25 12:50:50;;;;;;;7.38;4.30;;;384.30;793.60;;;;;;5000881;28;20042;-70
2021/03/25 12:53:17;;;;;;;7.47;5.18;;;384.10;768.00;;;;;;5011926;28;20487;-70